Time;durP1;ratioP1;P1;durP2;ratioP2;P2;SDS_P1;SDS_P2;PMS_P1;PMS_P2;Temp;Humidity;BMP_temperature;BMP_pressure;BME280_temperature;BME280_humidity;BME280_pressure;Samples;Min_cycle;Max_cycle;Signal;HPM_P1;HPM_P2
2022/11/24 00:01:22;;;;;;;3.55;0.75;;;7.10;99.90;;;;;;5051445;28;20072;-80
2022/11/24 00:03:59;;;;;;;0.30;0.30;;;7.10;99.90;;;;;;5053561;28;20036;-81
2022/11/24 00:06:25;;;;;;;0.32;0.32;;;7.20;99.90;;;;;;5039806;28;20039;-81
2022/11/24 00:08:52;;;;;;;0.70;0.70;;;7.30;99.90;;;;;;5061995;28;20025;-82
2022/11/24 00:11:36;;;;;;;0.57;0.57;;;7.40;99.90;;;;;;5050154;28;20048;-82
2022/11/24 00:14:03;;;;;;;0.30;0.30;;;7.40;99.90;;;;;;5051387;28;20559;-82
2022/11/24 00:16:31;;;;;;;0.70;0.57;;;7.30;99.90;;;;;;5048955;28;20080;-82
2022/11/24 00:18:59;;;;;;;0.10;0.10;;;7.30;99.90;;;;;;5048108;28;20067;-81
2022/11/24 00:21:26;;;;;;;0.40;0.40;;;7.20;99.90;;;;;;5049932;28;20024;-82
2022/11/24 00:23:52;;;;;;;0.43;0.38;;;7.10;99.90;;;;;;5031295;28;20041;-81
2022/11/24 00:26:26;;;;;;;0.10;0.10;;;7.00;99.90;;;;;;5058942;28;20142;-82
2022/11/24 00:28:55;;;;;;;0.30;0.30;;;7.10;99.90;;;;;;5051164;28;20064;-81
2022/11/24 00:31:26;;;;;;;0.20;0.20;;;7.10;99.90;;;;;;5055771;28;20052;-81
2022/11/24 00:33:55;;;;;;;0.10;0.10;;;7.40;99.90;;;;;;5031708;28;20029;-81
2022/11/24 00:36:22;;;;;;;0.20;0.20;;;7.50;99.90;;;;;;5031473;28;20029;-81
2022/11/24 00:38:56;;;;;;;0.10;0.10;;;7.80;99.90;;;;;;5033284;28;20043;-81
2022/11/24 00:41:23;;;;;;;0.10;0.10;;;7.80;99.90;;;;;;5044323;28;20021;-81
2022/11/24 00:43:49;;;;;;;0.20;0.20;;;7.90;99.90;;;;;;5029942;28;20553;-81
2022/11/24 00:46:15;;;;;;;0.10;0.10;;;8.00;99.90;;;;;;5049522;28;21469;-82
2022/11/24 00:48:41;;;;;;;1.15;0.77;;;8.00;99.90;;;;;;5051910;28;20024;-82
2022/11/24 00:51:09;;;;;;;0.20;0.20;;;7.90;99.90;;;;;;5033448;28;20037;-80
2022/11/24 00:53:35;;;;;;;0.40;0.40;;;7.70;99.90;;;;;;5035917;28;20476;-80
2022/11/24 00:56:03;;;;;;;0.22;0.20;;;7.60;99.90;;;;;;5029718;28;20095;-80
2022/11/24 00:58:30;;;;;;;0.10;0.10;;;7.50;99.90;;;;;;5050234;28;20032;-80
2022/11/24 01:01:04;;;;;;;0.52;0.52;;;7.60;99.90;;;;;;5052575;28;20648;-82
2022/11/24 01:03:30;;;;;;;0.20;0.20;;;7.80;99.90;;;;;;5049037;28;20051;-82
2022/11/24 01:06:09;;;;;;;0.20;0.20;;;7.80;99.90;;;;;;5049928;28;20789;-82
2022/11/24 01:08:36;;;;;;;0.13;0.13;;;7.90;99.90;;;;;;5047281;28;20032;-82
2022/11/24 01:11:29;;;;;;;0.10;0.10;;;7.90;99.90;;;;;;5033663;28;20029;-81
2022/11/24 01:13:57;;;;;;;3.75;0.85;;;8.10;99.90;;;;;;5046688;28;20029;-82
2022/11/24 01:16:25;;;;;;;0.80;0.57;;;8.20;99.90;;;;;;5030248;28;20021;-81
2022/11/24 01:18:51;;;;;;;0.13;0.13;;;8.20;99.90;;;;;;5048043;28;20036;-79
2022/11/24 01:21:18;;;;;;;8.52;1.75;;;8.10;99.90;;;;;;5051751;28;20503;-79
2022/11/24 01:23:43;;;;;;;0.75;0.75;;;7.80;99.90;;;;;;5052545;28;20083;-79
2022/11/24 01:26:12;;;;;;;0.10;0.10;;;7.60;99.90;;;;;;5049047;28;20465;-78
2022/11/24 01:28:38;;;;;;;0.65;0.65;;;7.60;99.90;;;;;;5036871;28;20106;-79
2022/11/24 01:31:06;;;;;;;0.13;0.13;;;7.50;99.90;;;;;;5031668;28;20835;-80
2022/11/24 01:33:33;;;;;;;0.20;0.20;;;7.40;99.90;;;;;;5031184;28;20057;-81
2022/11/24 01:35:59;;;;;;;;;;;7.40;99.90;;;;;;5030476;28;20057;-80
2022/11/24 01:38:26;;;;;;;0.15;0.15;;;7.50;99.90;;;;;;5049161;28;19913;-80
2022/11/24 01:41:05;;;;;;;0.52;0.52;;;7.70;99.90;;;;;;5053084;28;20096;-80
2022/11/24 01:43:31;;;;;;;0.65;0.65;;;7.80;99.90;;;;;;5050655;28;20680;-80
2022/11/24 01:46:21;;;;;;;1.02;0.88;;;7.80;99.90;;;;;;5057046;28;20537;-80
2022/11/24 01:49:17;;;;;;;0.20;0.20;;;7.90;99.90;;;;;;5047358;28;20029;-80
2022/11/24 01:52:08;;;;;;;0.88;0.68;;;8.00;99.90;;;;;;5039077;28;20068;-80
2022/11/24 01:54:39;;;;;;;0.30;0.30;;;8.00;99.90;;;;;;5054446;28;20580;-81
2022/11/24 01:57:23;;;;;;;0.30;0.30;;;7.90;99.90;;;;;;5047099;28;20766;-80
2022/11/24 01:59:55;;;;;;;0.77;0.77;;;7.60;99.90;;;;;;5049059;28;20076;-80
2022/11/24 02:02:21;;;;;;;0.17;0.17;;;7.50;99.90;;;;;;5032331;28;20029;-80
2022/11/24 02:04:48;;;;;;;0.90;0.75;;;7.50;99.90;;;;;;5052926;28;20036;-80
2022/11/24 02:07:13;;;;;;;;;;;7.40;99.90;;;;;;5051113;28;20037;-81
2022/11/24 02:09:50;;;;;;;0.17;0.17;;;7.40;99.90;;;;;;5051710;28;19923;-80
2022/11/24 02:12:15;;;;;;;0.93;0.80;;;7.30;99.90;;;;;;5047261;28;20078;-79
2022/11/24 02:14:42;;;;;;;0.17;0.17;;;7.20;99.90;;;;;;5048287;28;20271;-80
2022/11/24 02:17:08;;;;;;;2.80;1.45;;;7.20;99.90;;;;;;5049180;28;20563;-81
2022/11/24 02:19:51;;;;;;;0.82;0.82;;;7.20;99.90;;;;;;5046926;28;20029;-81
2022/11/24 02:22:20;;;;;;;0.28;0.28;;;7.20;99.90;;;;;;5046478;28;20107;-81
2022/11/24 02:25:10;;;;;;;4.68;1.10;;;7.10;99.90;;;;;;5049787;28;20036;-80
2022/11/24 02:27:36;;;;;;;2.15;1.55;;;7.20;99.90;;;;;;5046607;28;20032;-81
2022/11/24 02:30:03;;;;;;;1.02;0.43;;;7.10;99.90;;;;;;5050884;28;20106;-81
2022/11/24 02:32:29;;;;;;;;;;;7.10;99.90;;;;;;5050052;28;20033;-79
2022/11/24 02:35:04;;;;;;;0.20;0.20;;;7.20;99.90;;;;;;5045413;28;19918;-79
2022/11/24 02:37:30;;;;;;;0.20;0.20;;;7.30;99.90;;;;;;5039441;28;20717;-79
2022/11/24 02:39:55;;;;;;;0.25;0.25;;;7.30;99.90;;;;;;5048026;28;20360;-80
2022/11/24 02:42:22;;;;;;;2.22;0.85;;;7.30;99.90;;;;;;5046837;28;20947;-81
2022/11/24 02:44:51;;;;;;;20.00;1.10;;;7.20;99.90;;;;;;5048034;28;20048;-78
2022/11/24 02:47:17;;;;;;;0.60;0.47;;;7.20;99.90;;;;;;5046651;28;20116;-79
2022/11/24 02:49:42;;;;;;;0.10;0.10;;;7.20;99.90;;;;;;5047912;28;20124;-79
2022/11/24 02:52:08;;;;;;;1.05;0.98;;;7.30;99.90;;;;;;5047069;28;20115;-79
2022/11/24 02:54:34;;;;;;;0.52;0.52;;;7.50;99.90;;;;;;5045888;28;20037;-79
2022/11/24 02:57:00;;;;;;;0.68;0.20;;;7.60;99.90;;;;;;5046655;28;20029;-80
2022/11/24 02:59:25;;;;;;;0.45;0.35;;;7.80;99.90;;;;;;5028670;28;20036;-80
2022/11/24 03:01:51;;;;;;;0.50;0.50;;;7.90;99.90;;;;;;5050036;28;21066;-80
2022/11/24 03:04:17;;;;;;;0.15;0.15;;;8.00;99.90;;;;;;5047825;28;20086;-80
2022/11/24 03:06:42;;;;;;;0.30;0.30;;;8.00;99.90;;;;;;5055007;28;20036;-80
2022/11/24 03:09:10;;;;;;;5.38;1.30;;;8.10;99.90;;;;;;5050905;28;20040;-80
2022/11/24 03:11:36;;;;;;;0.30;0.30;;;8.10;99.90;;;;;;5051648;28;20029;-79
2022/11/24 03:14:02;;;;;;;0.20;0.20;;;8.10;99.90;;;;;;5054797;28;20025;-80
2022/11/24 03:16:27;;;;;;;6.45;1.92;;;8.10;99.90;;;;;;5032992;28;21739;-79
2022/11/24 03:18:53;;;;;;;0.30;0.30;;;8.20;99.90;;;;;;5061656;28;20561;-79
2022/11/24 03:21:19;;;;;;;0.45;0.45;;;8.20;99.90;;;;;;5032949;28;20032;-79
2022/11/24 03:23:45;;;;;;;0.20;0.20;;;8.20;99.90;;;;;;5053194;28;20114;-82
2022/11/24 03:26:14;;;;;;;0.22;0.22;;;8.10;99.90;;;;;;5052491;28;20052;-82
2022/11/24 03:28:40;;;;;;;1.45;0.77;;;8.00;99.90;;;;;;5051472;28;20246;-80
2022/11/24 03:31:07;;;;;;;0.20;0.20;;;8.00;99.90;;;;;;5051789;28;20025;-82
2022/11/24 03:33:33;;;;;;;0.55;0.55;;;7.90;99.90;;;;;;5032837;28;20036;-82
2022/11/24 03:35:59;;;;;;;0.30;0.30;;;7.90;99.90;;;;;;5038912;28;20033;-79
2022/11/24 03:38:24;;;;;;;0.22;0.22;;;7.90;99.90;;;;;;5032087;28;20044;-79
2022/11/24 03:40:50;;;;;;;0.52;0.52;;;8.00;99.90;;;;;;5049010;28;20033;-79
2022/11/24 03:43:16;;;;;;;1.08;0.95;;;8.00;99.90;;;;;;5050910;28;20033;-79
2022/11/24 03:45:45;;;;;;;1.20;0.63;;;8.10;99.90;;;;;;5049835;28;20044;-80
2022/11/24 03:48:10;;;;;;;0.93;0.85;;;8.00;99.90;;;;;;5049610;28;20096;-79
2022/11/24 03:50:36;;;;;;;0.30;0.30;;;8.10;99.90;;;;;;5031299;28;20028;-80
2022/11/24 03:53:02;;;;;;;2.40;1.05;;;8.10;99.90;;;;;;5049714;28;20033;-79
2022/11/24 03:55:28;;;;;;;2.53;0.95;;;8.10;99.90;;;;;;5034566;28;20041;-79
2022/11/24 03:57:53;;;;;;;0.38;0.38;;;8.10;99.90;;;;;;5051311;28;20437;-80
2022/11/24 04:00:19;;;;;;;3.72;1.30;;;8.10;99.90;;;;;;5049972;28;20722;-80
2022/11/24 04:02:44;;;;;;;0.63;0.63;;;8.10;99.90;;;;;;5032647;28;20567;-83
2022/11/24 04:05:10;;;;;;;2.63;1.45;;;8.00;99.90;;;;;;5053286;28;20121;-81
2022/11/24 04:07:36;;;;;;;0.55;0.55;;;8.00;99.90;;;;;;5049296;28;20036;-82
2022/11/24 04:10:02;;;;;;;1.80;0.65;;;8.00;99.90;;;;;;5049689;28;20059;-82
2022/11/24 04:12:43;;;;;;;0.10;0.10;;;8.00;99.90;;;;;;5049375;28;20044;-83
2022/11/24 04:15:14;;;;;;;0.20;0.20;;;8.00;99.90;;;;;;5049372;28;20032;-81
2022/11/24 04:17:40;;;;;;;0.75;0.68;;;8.10;99.90;;;;;;5035526;28;20159;-82
2022/11/24 04:20:06;;;;;;;0.10;0.10;;;8.00;99.90;;;;;;5050076;28;20149;-81
2022/11/24 04:22:32;;;;;;;0.10;0.10;;;8.00;99.90;;;;;;5048064;28;20035;-81
2022/11/24 04:24:58;;;;;;;0.55;0.55;;;8.10;99.90;;;;;;5060960;28;20034;-81
2022/11/24 04:27:23;;;;;;;0.15;0.15;;;8.10;99.90;;;;;;5054170;28;20489;-81
2022/11/24 04:29:49;;;;;;;0.38;0.38;;;8.10;99.90;;;;;;5036384;28;20456;-80
2022/11/24 04:32:16;;;;;;;0.30;0.30;;;8.20;99.90;;;;;;5052068;28;20028;-80
2022/11/24 04:34:41;;;;;;;0.17;0.17;;;8.30;99.90;;;;;;5037457;28;20028;-79
2022/11/24 04:37:07;;;;;;;0.38;0.38;;;8.40;99.90;;;;;;5058637;28;20043;-80
2022/11/24 04:39:33;;;;;;;0.10;0.10;;;8.30;99.90;;;;;;5031496;28;20064;-79
2022/11/24 04:41:59;;;;;;;0.95;0.95;;;8.40;99.90;;;;;;5050812;28;20510;-81
2022/11/24 04:44:25;;;;;;;0.10;0.10;;;8.50;99.90;;;;;;5058041;28;20032;-82
2022/11/24 04:46:50;;;;;;;0.40;0.40;;;8.50;99.90;;;;;;5051556;28;20036;-82
2022/11/24 04:49:16;;;;;;;1.35;1.27;;;8.40;99.90;;;;;;5050858;28;20202;-82
2022/11/24 04:51:42;;;;;;;0.55;0.45;;;8.50;99.90;;;;;;5031570;28;20504;-81
2022/11/24 04:54:12;;;;;;;0.10;0.10;;;8.50;99.90;;;;;;5038263;28;20062;-81
2022/11/24 04:56:40;;;;;;;0.20;0.20;;;8.60;99.90;;;;;;5052475;28;20036;-80
2022/11/24 04:59:06;;;;;;;0.20;0.20;;;8.50;99.90;;;;;;5036193;28;20100;-80
2022/11/24 05:01:32;;;;;;;0.45;0.45;;;8.50;99.90;;;;;;5030501;28;20614;-80
2022/11/24 05:03:58;;;;;;;0.77;0.77;;;8.50;99.90;;;;;;5048666;28;20037;-80
2022/11/24 05:06:24;;;;;;;0.98;0.68;;;8.40;99.90;;;;;;5032123;28;20322;-80
2022/11/24 05:08:51;;;;;;;0.75;0.75;;;8.40;99.90;;;;;;5048938;28;20032;-80
2022/11/24 05:11:17;;;;;;;;;;;8.40;99.90;;;;;;5033939;28;20029;-79
2022/11/24 05:13:43;;;;;;;0.20;0.20;;;8.40;99.90;;;;;;5033570;28;19923;-81
2022/11/24 05:16:09;;;;;;;1.40;1.20;;;8.40;99.90;;;;;;5050486;28;20070;-80
2022/11/24 05:18:36;;;;;;;1.10;1.08;;;8.40;99.90;;;;;;5053499;28;20499;-82
2022/11/24 05:21:03;;;;;;;0.22;0.22;;;8.40;99.90;;;;;;5032001;28;20091;-80
2022/11/24 05:23:29;;;;;;;2.70;1.08;;;8.40;99.90;;;;;;5048694;28;20150;-79
2022/11/24 05:25:59;;;;;;;0.45;0.45;;;8.30;99.90;;;;;;5050079;28;20037;-81
2022/11/24 05:28:25;;;;;;;0.35;0.35;;;8.30;99.90;;;;;;5048586;28;20052;-82
2022/11/24 05:30:51;;;;;;;0.20;0.20;;;8.30;99.90;;;;;;5060506;28;20028;-81
2022/11/24 05:33:17;;;;;;;4.35;1.55;;;8.30;99.90;;;;;;5058479;28;20464;-81
2022/11/24 05:35:50;;;;;;;0.10;0.10;;;8.40;99.90;;;;;;5033970;28;20033;-81
2022/11/24 05:38:16;;;;;;;3.03;0.85;;;8.40;99.90;;;;;;5051859;28;20037;-81
2022/11/24 05:40:43;;;;;;;0.20;0.20;;;8.30;99.90;;;;;;5059551;28;20025;-81
2022/11/24 05:43:13;;;;;;;9.90;1.02;;;8.30;99.90;;;;;;5040680;28;20104;-79
2022/11/24 05:45:39;;;;;;;0.30;0.30;;;8.40;99.90;;;;;;5040637;28;20055;-78
2022/11/24 05:48:07;;;;;;;0.37;0.37;;;8.50;99.90;;;;;;5047646;28;20045;-80
2022/11/24 05:50:33;;;;;;;0.73;0.73;;;8.40;99.90;;;;;;5049226;28;20313;-81
2022/11/24 05:53:11;;;;;;;0.10;0.10;;;8.30;99.90;;;;;;5033696;28;20046;-77
2022/11/24 05:55:37;;;;;;;0.60;0.60;;;8.10;99.90;;;;;;5047289;28;20049;-81
2022/11/24 05:58:05;;;;;;;0.82;0.82;;;8.00;99.90;;;;;;5046880;28;20044;-78
2022/11/24 06:00:32;;;;;;;0.22;0.22;;;8.00;99.90;;;;;;5046576;28;20040;-80
2022/11/24 06:02:59;;;;;;;0.20;0.20;;;7.90;99.90;;;;;;5047472;28;20044;-80
2022/11/24 06:05:26;;;;;;;0.35;0.35;;;7.90;99.90;;;;;;5048094;28;20036;-78
2022/11/24 06:07:51;;;;;;;;;;;7.90;99.90;;;;;;5032302;28;20099;-78
2022/11/24 06:10:18;;;;;;;0.40;0.40;;;7.90;99.90;;;;;;5045077;28;19964;-77
2022/11/24 06:12:44;;;;;;;0.20;0.20;;;7.80;99.90;;;;;;5020661;28;20041;-78
2022/11/24 06:15:11;;;;;;;0.60;0.57;;;7.90;99.90;;;;;;5029124;28;20483;-78
2022/11/24 06:17:37;;;;;;;0.63;0.63;;;7.90;99.90;;;;;;5047254;28;20035;-78
2022/11/24 06:20:04;;;;;;;1.60;1.23;;;8.00;99.90;;;;;;5047543;28;20029;-78
2022/11/24 06:22:30;;;;;;;0.10;0.10;;;8.10;99.90;;;;;;5046674;28;20066;-77
2022/11/24 06:24:55;;;;;;;3.40;1.63;;;8.00;99.90;;;;;;5047639;28;20029;-77
2022/11/24 06:27:22;;;;;;;0.50;0.38;;;7.90;99.90;;;;;;5037519;28;20033;-81
2022/11/24 06:29:47;;;;;;;0.47;0.47;;;7.80;99.90;;;;;;5036153;28;20501;-81
2022/11/24 06:32:13;;;;;;;0.17;0.13;;;7.80;99.90;;;;;;5033845;28;20091;-81
2022/11/24 06:34:39;;;;;;;7.13;0.98;;;7.90;99.90;;;;;;5044021;28;20033;-81
2022/11/24 06:37:05;;;;;;;0.15;0.15;;;8.00;99.90;;;;;;5048243;28;20056;-80
2022/11/24 06:39:31;;;;;;;3.78;1.80;;;8.00;99.90;;;;;;5029286;28;20033;-80
2022/11/24 06:41:57;;;;;;;0.77;0.75;;;8.00;99.90;;;;;;5033084;28;20075;-79
2022/11/24 06:44:23;;;;;;;0.30;0.30;;;8.10;99.90;;;;;;5047917;28;20033;-80
2022/11/24 06:46:49;;;;;;;15.23;0.65;;;8.00;99.90;;;;;;5057290;28;20041;-81
2022/11/24 06:49:14;;;;;;;4.38;1.17;;;8.10;99.90;;;;;;5049848;28;20036;-81
2022/11/24 06:51:41;;;;;;;0.35;0.35;;;8.20;99.90;;;;;;5052178;28;20029;-80
2022/11/24 06:54:07;;;;;;;16.90;0.68;;;8.30;99.90;;;;;;5052082;28;20088;-80
2022/11/24 06:56:33;;;;;;;0.40;0.30;;;8.30;99.90;;;;;;5052569;28;20044;-79
2022/11/24 06:59:00;;;;;;;0.32;0.32;;;8.40;99.90;;;;;;5050529;28;20271;-80
2022/11/24 07:01:27;;;;;;;0.80;0.75;;;8.30;99.90;;;;;;5032825;28;20029;-80
2022/11/24 07:03:54;;;;;;;0.90;0.90;;;8.10;99.90;;;;;;5062774;28;20041;-81
2022/11/24 07:06:21;;;;;;;0.10;0.10;;;8.10;99.90;;;;;;5050866;28;20036;-84
2022/11/24 07:08:48;;;;;;;0.40;0.40;;;8.10;99.90;;;;;;5052110;28;20041;-84
2022/11/24 07:11:17;;;;;;;0.17;0.17;;;8.00;99.90;;;;;;5041571;28;20829;-84
2022/11/24 07:13:43;;;;;;;6.70;1.75;;;7.90;99.90;;;;;;5063701;28;20079;-81
2022/11/24 07:16:15;;;;;;;3.60;2.03;;;7.80;99.90;;;;;;5050339;28;20029;-81
2022/11/24 07:18:44;;;;;;;0.40;0.40;;;7.90;99.90;;;;;;5050530;28;20055;-80
2022/11/24 07:21:10;;;;;;;1.98;0.95;;;7.90;99.90;;;;;;5039639;28;20029;-83
2022/11/24 07:23:36;;;;;;;1.42;0.85;;;7.90;99.90;;;;;;5051829;28;20641;-80
2022/11/24 07:26:04;;;;;;;0.83;0.83;;;7.90;99.90;;;;;;5051430;28;20044;-80
2022/11/24 07:28:30;;;;;;;0.38;0.38;;;8.00;99.90;;;;;;5050720;28;20033;-85
2022/11/24 07:30:56;;;;;;;0.25;0.25;;;8.00;99.90;;;;;;5055227;28;20054;-81
2022/11/24 07:33:24;;;;;;;0.30;0.30;;;8.10;99.90;;;;;;5050411;28;20032;-84
2022/11/24 07:35:52;;;;;;;1.65;0.75;;;8.30;99.90;;;;;;5062148;28;20029;-82
2022/11/24 07:38:19;;;;;;;10.55;1.25;;;8.50;99.90;;;;;;5032292;28;20052;-83
2022/11/24 07:40:45;;;;;;;0.38;0.38;;;8.60;99.90;;;;;;5049244;28;20025;-82
2022/11/24 07:43:11;;;;;;;0.75;0.75;;;8.90;99.90;;;;;;5032298;28;20603;-89
2022/11/24 07:45:37;;;;;;;0.35;0.35;;;9.10;99.90;;;;;;5048643;28;20109;-84
2022/11/24 07:48:03;;;;;;;0.10;0.10;;;9.30;99.90;;;;;;5049319;28;20021;-84
2022/11/24 07:50:28;;;;;;;0.65;0.65;;;9.20;99.90;;;;;;5049402;28;20033;-84
2022/11/24 07:52:54;;;;;;;0.30;0.30;;;8.80;99.90;;;;;;5031135;28;20393;-84
2022/11/24 07:55:19;;;;;;;0.30;0.30;;;8.70;99.90;;;;;;5044412;28;20053;-84
2022/11/24 07:57:45;;;;;;;0.57;0.57;;;9.00;99.90;;;;;;5050025;28;20017;-86
2022/11/24 08:00:11;;;;;;;0.38;0.38;;;9.40;99.90;;;;;;5049924;28;20103;-85
2022/11/24 08:02:37;;;;;;;2.00;0.35;;;9.50;99.90;;;;;;5032010;28;20036;-84
2022/11/24 08:05:04;;;;;;;0.52;0.45;;;9.70;99.90;;;;;;5032344;28;20037;-84
2022/11/24 08:07:30;;;;;;;1.13;1.02;;;9.70;99.90;;;;;;5052302;28;20041;-85
2022/11/24 08:09:55;;;;;;;0.90;0.90;;;9.70;99.90;;;;;;5050262;28;20068;-85
2022/11/24 08:12:21;;;;;;;0.40;0.40;;;9.70;99.90;;;;;;5050242;28;20879;-85
2022/11/24 08:14:50;;;;;;;0.10;0.10;;;9.50;99.90;;;;;;5050429;28;20025;-85
2022/11/24 08:17:17;;;;;;;0.32;0.32;;;9.20;99.90;;;;;;5054722;28;20460;-85
2022/11/24 08:19:43;;;;;;;1.10;1.00;;;9.00;99.90;;;;;;5065666;28;20037;-86
2022/11/24 08:22:09;;;;;;;0.40;0.40;;;8.70;99.90;;;;;;5050325;28;20040;-84
2022/11/24 08:24:34;;;;;;;0.30;0.30;;;8.80;99.90;;;;;;5050367;28;20040;-84
2022/11/24 08:27:00;;;;;;;11.60;0.93;;;9.30;99.90;;;;;;5049392;28;20025;-84
2022/11/24 08:29:29;;;;;;;1.00;0.85;;;9.60;99.90;;;;;;5063172;28;20033;-84
2022/11/24 08:31:56;;;;;;;0.15;0.15;;;9.60;99.90;;;;;;5049022;28;20032;-84
2022/11/24 08:34:23;;;;;;;0.55;0.55;;;9.30;99.90;;;;;;5049423;28;20110;-84
2022/11/24 08:36:50;;;;;;;0.20;0.20;;;9.20;99.90;;;;;;5064160;28;20562;-84
2022/11/24 08:39:16;;;;;;;0.20;0.20;;;9.10;99.90;;;;;;5049782;28;20041;-85
2022/11/24 08:41:41;;;;;;;3.63;1.55;;;9.00;99.90;;;;;;5063119;28;20033;-84
2022/11/24 08:44:09;;;;;;;7.85;0.47;;;8.90;99.90;;;;;;5049127;28;20035;-84
2022/11/24 08:46:35;;;;;;;0.63;0.63;;;8.80;99.90;;;;;;5048816;28;20055;-84
2022/11/24 08:49:02;;;;;;;0.22;0.22;;;8.90;99.90;;;;;;5030538;28;20037;-84
2022/11/24 08:51:28;;;;;;;0.20;0.20;;;8.90;99.90;;;;;;5048826;28;20036;-83
2022/11/24 08:53:59;;;;;;;0.13;0.13;;;8.90;99.90;;;;;;5034759;28;20025;-84
2022/11/24 08:56:26;;;;;;;0.28;0.28;;;9.40;99.90;;;;;;5048248;28;20132;-83
2022/11/24 08:58:53;;;;;;;0.10;0.10;;;9.60;99.90;;;;;;5031130;28;20028;-83
2022/11/24 09:01:19;;;;;;;6.47;1.88;;;10.10;99.90;;;;;;5048821;28;20027;-84
2022/11/24 09:03:47;;;;;;;7.20;0.63;;;10.30;99.90;;;;;;5048065;28;20033;-84
2022/11/24 09:06:13;;;;;;;1.15;0.77;;;10.40;99.90;;;;;;5048786;28;20523;-84
2022/11/24 09:08:39;;;;;;;0.17;0.17;;;10.60;99.90;;;;;;5048418;28;20069;-85
2022/11/24 09:11:10;;;;;;;1.17;0.68;;;10.40;99.90;;;;;;5048267;28;20028;-84
2022/11/24 09:13:36;;;;;;;0.98;0.73;;;10.20;99.90;;;;;;5049033;28;20032;-84
2022/11/24 09:16:07;;;;;;;0.10;0.10;;;10.10;99.90;;;;;;5030955;28;20064;-84
2022/11/24 09:18:33;;;;;;;0.10;0.10;;;10.50;99.90;;;;;;5030455;28;20679;-84
2022/11/24 09:21:09;;;;;;;0.10;0.10;;;10.40;99.90;;;;;;5048273;28;20104;-84
2022/11/24 09:23:35;;;;;;;0.60;0.60;;;10.50;99.90;;;;;;5030208;28;20082;-83
2022/11/24 09:26:10;;;;;;;0.93;0.55;;;10.40;99.90;;;;;;5030039;28;20036;-84
2022/11/24 09:28:35;;;;;;;0.47;0.47;;;10.30;99.90;;;;;;5048406;28;20074;-84
2022/11/24 09:31:03;;;;;;;0.05;0.05;;;10.40;99.90;;;;;;5047696;28;20025;-83
2022/11/24 09:33:30;;;;;;;0.43;0.20;;;10.00;99.90;;;;;;5047837;28;20050;-84
2022/11/24 09:35:56;;;;;;;0.25;0.25;;;10.30;99.90;;;;;;5030376;28;20029;-84
2022/11/24 09:38:22;;;;;;;0.20;0.20;;;10.20;99.90;;;;;;5047073;28;20036;-83
2022/11/24 09:40:49;;;;;;;2.07;1.03;;;10.60;99.90;;;;;;5029211;28;20074;-83
2022/11/24 09:43:27;;;;;;;0.85;0.32;;;10.90;99.90;;;;;;5029455;28;20104;-84
2022/11/24 09:46:16;;;;;;;0.65;0.65;;;11.10;99.90;;;;;;5063237;28;20033;-83
2022/11/24 09:48:48;;;;;;;0.20;0.20;;;11.00;99.90;;;;;;5047595;28;20104;-83
2022/11/24 09:51:15;;;;;;;0.13;0.13;;;11.30;99.90;;;;;;5048670;28;20029;-83
2022/11/24 09:54:00;;;;;;;;;;;11.30;99.90;;;;;;5030316;28;20098;-84
2022/11/24 09:56:33;;;;;;;0.10;0.10;;;11.30;99.90;;;;;;5047093;28;19931;-83
2022/11/24 09:59:02;;;;;;;5.78;0.90;;;11.50;99.90;;;;;;5047792;28;20031;-84
2022/11/24 10:01:36;;;;;;;1.80;1.10;;;11.60;99.90;;;;;;5049589;28;20029;-83
2022/11/24 10:04:09;;;;;;;0.40;0.40;;;11.40;99.90;;;;;;5047614;28;20455;-83
2022/11/24 10:06:39;;;;;;;18.77;0.52;;;11.70;99.90;;;;;;5044778;28;20027;-83
2022/11/24 10:09:23;;;;;;;0.40;0.40;;;11.80;99.90;;;;;;5047886;28;20040;-83
2022/11/24 10:12:05;;;;;;;0.10;0.10;;;11.60;99.90;;;;;;5029267;28;20025;-83
2022/11/24 10:14:40;;;;;;;0.50;0.50;;;11.50;99.90;;;;;;5045843;28;20507;-83
2022/11/24 10:17:27;;;;;;;0.60;0.55;;;11.40;99.90;;;;;;5048026;28;20112;-83
2022/11/24 10:20:02;;;;;;;0.20;0.20;;;11.20;99.90;;;;;;5044787;28;20033;-83
2022/11/24 10:22:33;;;;;;;0.20;0.20;;;11.40;99.90;;;;;;5044297;28;20047;-83
2022/11/24 10:25:20;;;;;;;4.47;0.65;;;11.60;99.90;;;;;;5047626;28;20080;-84
2022/11/24 10:28:01;;;;;;;0.10;0.10;;;11.40;99.90;;;;;;5062854;28;20635;-83
2022/11/24 10:30:27;;;;;;;0.10;0.10;;;11.20;99.90;;;;;;5028823;28;20025;-83
2022/11/24 10:33:11;;;;;;;0.50;0.40;;;11.30;99.90;;;;;;5047160;28;20037;-83
2022/11/24 10:35:48;;;;;;;0.10;0.10;;;11.40;99.90;;;;;;5036100;28;20031;-83
2022/11/24 10:38:20;;;;;;;0.00;0.00;;;11.40;99.90;;;;;;5029791;28;20040;-83
2022/11/24 10:41:15;;;;;;;1.02;1.02;;;11.50;99.90;;;;;;5047303;28;20027;-84
2022/11/24 10:43:42;;;;;;;0.22;0.22;;;11.40;99.90;;;;;;5044426;28;20037;-82
2022/11/24 10:46:07;;;;;;;;;;;11.50;99.90;;;;;;5047586;28;20075;-84
2022/11/24 10:48:43;;;;;;;0.40;0.30;;;11.50;99.90;;;;;;5047419;28;19908;-83
2022/11/24 10:51:27;;;;;;;0.17;0.17;;;11.10;99.90;;;;;;5047504;28;20043;-82
2022/11/24 10:54:00;;;;;;;1.55;0.57;;;11.10;99.90;;;;;;5039202;28;20032;-83
2022/11/24 10:56:25;;;;;;;0.10;0.10;;;11.40;99.90;;;;;;5046237;28;20566;-82
2022/11/24 10:58:51;;;;;;;2.80;1.00;;;11.50;99.90;;;;;;5028851;28;20287;-82
2022/11/24 11:01:17;;;;;;;0.20;0.20;;;11.70;99.90;;;;;;5048825;28;20057;-83
2022/11/24 11:03:56;;;;;;;0.55;0.55;;;11.50;99.90;;;;;;5047274;28;20029;-83
2022/11/24 11:06:26;;;;;;;0.10;0.10;;;11.60;99.90;;;;;;5044298;28;20036;-82
2022/11/24 11:09:07;;;;;;;0.10;0.10;;;11.50;99.90;;;;;;5062123;28;20211;-83
2022/11/24 11:11:34;;;;;;;0.17;0.17;;;11.70;99.90;;;;;;5043493;28;20567;-83
2022/11/24 11:14:02;;;;;;;0.20;0.20;;;11.70;99.90;;;;;;5046891;28;20082;-82
2022/11/24 11:16:45;;;;;;;1.75;0.50;;;11.40;99.90;;;;;;5045150;28;20035;-82
2022/11/24 11:19:32;;;;;;;0.10;0.10;;;11.60;99.90;;;;;;5042810;28;20071;-83
2022/11/24 11:22:20;;;;;;;1.83;0.95;;;11.50;99.90;;;;;;5043390;28;20061;-82
2022/11/24 11:24:47;;;;;;;0.30;0.30;;;11.40;99.90;;;;;;5036736;28;20045;-82
2022/11/24 11:27:20;;;;;;;0.30;0.30;;;11.10;99.90;;;;;;5049063;28;20032;-83
2022/11/24 11:29:47;;;;;;;0.85;0.55;;;11.00;99.90;;;;;;5049308;28;20888;-83
2022/11/24 11:32:24;;;;;;;0.77;0.77;;;10.70;99.90;;;;;;5032366;28;20025;-82
2022/11/24 11:34:55;;;;;;;0.17;0.17;;;10.90;99.90;;;;;;5033184;28;20033;-82
2022/11/24 11:37:27;;;;;;;0.20;0.20;;;10.90;99.90;;;;;;5050706;28;20092;-82
2022/11/24 11:39:54;;;;;;;8.48;0.65;;;11.10;99.90;;;;;;5050542;28;20029;-82
2022/11/24 11:42:32;;;;;;;0.20;0.20;;;11.40;99.90;;;;;;5050614;28;20518;-83
2022/11/24 11:45:14;;;;;;;0.10;0.10;;;11.40;99.90;;;;;;5050389;28;20044;-83
2022/11/24 11:47:52;;;;;;;2.30;0.35;;;11.30;99.90;;;;;;5044046;28;20017;-82
2022/11/24 11:50:47;;;;;;;0.22;0.22;;;11.50;99.90;;;;;;5032511;28;20687;-82
2022/11/24 11:53:27;;;;;;;3.20;0.90;;;11.50;99.90;;;;;;5049933;28;20045;-82
2022/11/24 11:56:08;;;;;;;0.00;0.00;;;11.60;99.90;;;;;;5049892;28;20687;-82
2022/11/24 11:58:46;;;;;;;0.63;0.63;;;11.70;99.90;;;;;;5048517;28;20036;-82
2022/11/24 12:01:33;;;;;;;0.38;0.32;;;11.60;99.90;;;;;;5050089;28;20103;-82
2022/11/24 12:04:17;;;;;;;0.30;0.30;;;11.80;99.90;;;;;;5044789;28;20564;-82
2022/11/24 12:07:05;;;;;;;0.47;0.47;;;11.60;99.90;;;;;;5047227;28;20698;-83
2022/11/24 12:09:38;;;;;;;0.10;0.10;;;11.60;99.90;;;;;;5049951;28;20755;-82
2022/11/24 12:12:28;;;;;;;0.43;0.43;;;11.50;99.90;;;;;;5044379;28;20491;-82
2022/11/24 12:15:13;;;;;;;1.02;1.00;;;11.30;99.90;;;;;;5046741;28;20032;-82
2022/11/24 12:17:56;;;;;;;1.08;0.90;;;11.40;99.90;;;;;;5060521;28;20029;-82
2022/11/24 12:20:28;;;;;;;11.05;1.58;;;11.20;99.90;;;;;;5046468;28;20117;-82
2022/11/24 12:23:05;;;;;;;0.95;0.95;;;11.30;99.90;;;;;;5050268;28;20041;-82
2022/11/24 12:25:40;;;;;;;;;;;11.50;99.90;;;;;;5049857;28;20543;-81
2022/11/24 12:28:18;;;;;;;0.10;0.10;;;11.60;99.90;;;;;;5053977;28;19908;-83
2022/11/24 12:30:59;;;;;;;1.15;1.10;;;11.80;99.90;;;;;;5049097;28;20033;-82
2022/11/24 12:33:53;;;;;;;0.22;0.22;;;12.00;99.90;;;;;;5049625;28;20025;-82
2022/11/24 12:36:57;;;;;;;0.30;0.30;;;12.00;99.90;;;;;;5031254;28;20025;-82
2022/11/24 12:39:38;;;;;;;1.75;1.02;;;12.00;99.90;;;;;;5015281;28;20051;-83
2022/11/24 12:42:34;;;;;;;1.55;1.45;;;12.00;99.90;;;;;;5049518;28;20025;-82
2022/11/24 12:45:14;;;;;;;0.10;0.10;;;12.20;99.90;;;;;;5049758;28;20032;-82
2022/11/24 12:47:48;;;;;;;2.30;0.95;;;12.20;99.90;;;;;;5042877;28;20036;-82
2022/11/24 12:50:18;;;;;;;3.60;1.88;;;12.30;99.90;;;;;;5046089;28;20036;-82
2022/11/24 12:52:59;;;;;;;0.20;0.20;;;12.30;99.90;;;;;;5038663;28;20044;-82
2022/11/24 12:55:26;;;;;;;0.40;0.40;;;12.00;99.90;;;;;;5029963;28;20048;-81
2022/11/24 12:58:10;;;;;;;3.55;0.70;;;12.10;99.90;;;;;;5049122;28;20110;-83
2022/11/24 13:01:00;;;;;;;0.73;0.52;;;12.10;99.90;;;;;;5047430;28;20032;-83
2022/11/24 13:03:38;;;;;;;0.77;0.60;;;12.20;99.90;;;;;;5047235;28;20017;-83
2022/11/24 13:06:09;;;;;;;0.47;0.47;;;12.10;99.90;;;;;;5049992;28;20056;-82
2022/11/24 13:08:36;;;;;;;0.05;0.05;;;12.30;99.90;;;;;;5049003;28;20029;-83
2022/11/24 13:11:20;;;;;;;0.47;0.47;;;12.60;99.90;;;;;;5030790;28;20024;-82